Time;durP1;ratioP1;P1;durP2;ratioP2;P2;SDS_P1;SDS_P2;PMS_P1;PMS_P2;Temp;Humidity;BMP_temperature;BMP_pressure;BME280_temperature;BME280_humidity;BME280_pressure;Samples;Min_cycle;Max_cycle;Signal;HPM_P1;HPM_P2
2022/05/01 00:02:05;;;;;;;21.43;15.90;;;9.70;99.90;;;;;;4849946;29;20829;-94
2022/05/01 00:04:34;;;;;;;23.03;17.03;;;9.70;99.90;;;;;;4840003;29;20290;-94
2022/05/01 00:07:22;;;;;;;17.70;15.80;;;9.70;99.90;;;;;;4834246;29;20800;-95
2022/05/01 00:10:09;;;;;;;19.10;15.20;;;9.70;99.90;;;;;;4840788;29;20486;-96
2022/05/01 00:12:41;;;;;;;19.00;15.73;;;9.70;99.90;;;;;;4849778;29;20457;-95
2022/05/01 00:15:08;;;;;;;19.70;16.90;;;9.70;99.90;;;;;;4860652;29;20471;-95
2022/05/01 00:17:33;;;;;;;20.67;17.03;;;9.70;99.90;;;;;;4865015;29;21020;-94
2022/05/01 00:19:59;;;;;;;21.03;17.20;;;9.60;99.90;;;;;;4849217;29;20530;-94
2022/05/01 00:22:24;;;;;;;19.27;16.97;;;9.50;99.90;;;;;;4834286;29;20292;-94
2022/05/01 00:24:50;;;;;;;23.50;17.53;;;9.50;99.90;;;;;;4846249;29;20313;-95
2022/05/01 00:27:17;;;;;;;22.30;17.00;;;9.60;99.90;;;;;;4843589;29;20199;-95
2022/05/01 00:29:42;;;;;;;22.57;17.27;;;9.60;99.90;;;;;;4833729;29;20205;-96
2022/05/01 00:32:08;;;;;;;20.07;17.97;;;9.70;99.90;;;;;;4852821;29;20880;-96
2022/05/01 00:37:21;;;;;;;19.77;16.07;;;9.80;99.90;;;;;;4839288;29;20446;-96
2022/05/01 00:39:47;;;;;;;20.53;16.10;;;9.80;99.90;;;;;;4836747;29;20442;-96
2022/05/01 00:42:15;;;;;;;20.30;16.10;;;9.80;99.90;;;;;;4856031;29;20285;-96
2022/05/01 00:44:43;;;;;;;19.53;15.53;;;9.80;99.90;;;;;;4847380;29;21115;-96
2022/05/01 00:47:09;;;;;;;21.33;16.03;;;9.80;99.90;;;;;;4834724;29;20804;-95
2022/05/01 00:49:34;;;;;;;20.73;15.77;;;9.70;99.90;;;;;;4850207;29;20473;-96
2022/05/01 00:52:10;;;;;;;20.00;16.43;;;9.70;99.90;;;;;;4841643;29;20195;-96
2022/05/01 00:54:39;;;;;;;16.93;14.77;;;9.70;99.90;;;;;;4851183;29;20265;-96
2022/05/01 00:57:09;;;;;;;23.63;17.67;;;9.70;99.90;;;;;;4845712;29;20458;-95
2022/05/01 00:59:37;;;;;;;21.77;17.07;;;9.80;99.90;;;;;;4842438;29;21063;-95
2022/05/01 01:02:04;;;;;;;18.73;16.70;;;9.80;99.90;;;;;;4838598;29;20475;-95
2022/05/01 01:04:38;;;;;;;17.90;15.60;;;9.80;99.90;;;;;;4849774;29;20478;-96
2022/05/01 01:07:18;;;;;;;17.70;15.30;;;9.80;99.90;;;;;;4840374;29;20451;-96
2022/05/01 01:09:44;;;;;;;17.67;15.43;;;9.90;99.90;;;;;;4854619;29;20466;-95
2022/05/01 01:15:08;;;;;;;19.33;15.43;;;9.90;99.90;;;;;;4844701;29;20193;-95
2022/05/01 01:17:38;;;;;;;19.00;14.97;;;9.90;99.90;;;;;;4848965;29;22074;-96
2022/05/01 01:20:11;;;;;;;18.40;15.30;;;9.80;99.90;;;;;;4846955;29;20455;-95
2022/05/01 01:22:43;;;;;;;21.40;17.23;;;9.70;99.90;;;;;;4849117;29;20573;-96
2022/05/01 01:25:10;;;;;;;20.37;16.53;;;9.70;99.90;;;;;;4850188;29;20490;-96
2022/05/01 01:27:39;;;;;;;21.70;18.07;;;9.50;99.90;;;;;;4866214;29;20515;-94
2022/05/01 01:32:59;;;;;;;20.20;17.03;;;9.40;99.90;;;;;;4848558;29;20459;-94
2022/05/01 01:35:40;;;;;;;20.03;16.80;;;9.30;99.90;;;;;;4840345;29;20616;-94
2022/05/01 01:38:06;;;;;;;22.07;17.33;;;9.30;99.90;;;;;;4837920;29;20486;-95
2022/05/01 01:40:38;;;;;;;21.07;18.63;;;9.40;99.90;;;;;;4836104;29;20447;-95
2022/05/01 01:43:05;;;;;;;23.37;18.57;;;9.50;99.90;;;;;;4833870;29;20519;-94
2022/05/01 01:45:30;;;;;;;27.30;18.80;;;9.40;99.90;;;;;;4840019;29;20459;-95
2022/05/01 01:48:09;;;;;;;23.57;18.23;;;9.50;99.90;;;;;;4838215;29;20457;-95
2022/05/01 01:50:35;;;;;;;26.03;19.57;;;9.40;99.90;;;;;;4853126;29;20859;-94
2022/05/01 01:53:00;;;;;;;26.43;18.30;;;9.40;99.90;;;;;;4848873;29;20533;-95
2022/05/01 01:55:26;;;;;;;22.83;17.80;;;9.60;99.90;;;;;;4830736;29;20455;-94
2022/05/01 01:57:51;;;;;;;21.33;17.27;;;9.70;99.90;;;;;;4847574;29;20449;-94
2022/05/01 02:00:17;;;;;;;21.93;17.57;;;9.70;99.90;;;;;;4859788;29;20227;-95
2022/05/01 02:02:42;;;;;;;25.73;18.30;;;9.70;99.90;;;;;;4864533;29;20229;-94
2022/05/01 02:05:09;;;;;;;25.57;17.93;;;9.60;99.90;;;;;;4866675;29;20372;-95
2022/05/01 02:07:35;;;;;;;23.50;17.60;;;9.50;99.90;;;;;;4870882;29;20276;-96
2022/05/01 02:10:03;;;;;;;24.37;18.30;;;9.50;99.90;;;;;;4871426;29;21059;-96
2022/05/01 02:12:29;;;;;;;24.70;18.70;;;9.50;99.90;;;;;;4866667;29;20189;-95
2022/05/01 02:14:55;;;;;;;25.53;18.97;;;9.50;99.90;;;;;;4848097;29;20450;-95
2022/05/01 02:17:20;;;;;;;28.30;19.90;;;9.60;99.90;;;;;;4861833;29;20462;-95
2022/05/01 02:19:46;;;;;;;23.53;18.00;;;9.50;99.90;;;;;;4848068;29;20296;-94
2022/05/01 02:22:21;;;;;;;24.20;18.03;;;9.60;99.90;;;;;;4864947;29;20186;-95
2022/05/01 02:25:00;;;;;;;21.40;16.80;;;9.60;99.90;;;;;;4853670;29;20214;-96
2022/05/01 02:27:26;;;;;;;20.40;16.90;;;9.60;99.90;;;;;;4873414;29;20458;-96
2022/05/01 02:29:51;;;;;;;20.80;17.70;;;9.50;99.90;;;;;;4862490;29;20455;-96
2022/05/01 02:32:17;;;;;;;25.33;17.70;;;9.40;99.90;;;;;;4847318;29;20236;-96
2022/05/01 02:34:55;;;;;;;27.47;19.10;;;9.40;99.90;;;;;;4865295;29;20198;-95
2022/05/01 02:37:24;;;;;;;21.07;18.50;;;9.30;99.90;;;;;;4862588;29;20282;-94
2022/05/01 02:39:52;;;;;;;21.63;17.47;;;9.30;99.90;;;;;;4849032;29;20450;-95
2022/05/01 02:42:20;;;;;;;22.50;17.20;;;9.20;99.90;;;;;;4851025;29;20476;-95
2022/05/01 02:44:46;;;;;;;25.97;19.17;;;9.20;99.90;;;;;;4850538;29;20229;-95
2022/05/01 02:47:14;;;;;;;22.70;18.50;;;9.20;99.90;;;;;;4864285;29;20454;-94
2022/05/01 02:49:43;;;;;;;23.60;19.97;;;9.10;99.90;;;;;;4863038;29;20193;-94
2022/05/01 02:52:11;;;;;;;24.93;19.27;;;9.00;99.90;;;;;;4846469;29;20481;-94
2022/05/01 02:54:36;;;;;;;24.20;18.73;;;8.90;99.90;;;;;;4863942;29;20463;-93
2022/05/01 02:57:03;;;;;;;20.60;17.50;;;9.00;99.90;;;;;;4861419;29;20190;-94
2022/05/01 02:59:29;;;;;;;22.07;17.37;;;9.10;99.90;;;;;;4858233;29;20224;-94
2022/05/01 03:01:57;;;;;;;22.27;18.17;;;9.20;99.90;;;;;;4861098;29;20483;-94
2022/05/01 03:04:41;;;;;;;24.47;18.17;;;9.30;99.90;;;;;;4863513;29;20542;-94
2022/05/01 03:07:07;;;;;;;24.10;20.17;;;9.40;99.90;;;;;;4847774;29;20610;-94
2022/05/01 03:09:34;;;;;;;27.00;19.97;;;9.40;99.90;;;;;;4862341;29;20527;-94
2022/05/01 03:11:59;;;;;;;26.60;20.77;;;9.40;99.90;;;;;;4861745;29;20450;-94
2022/05/01 03:14:25;;;;;;;29.30;21.70;;;9.50;99.90;;;;;;4866428;29;20455;-95
2022/05/01 03:16:50;;;;;;;34.10;23.67;;;9.50;99.90;;;;;;4860104;29;20246;-94
2022/05/01 03:22:15;;;;;;;27.27;21.00;;;9.60;99.90;;;;;;4846290;29;20557;-94
2022/05/01 03:24:42;;;;;;;27.53;20.13;;;9.70;99.90;;;;;;4842752;29;20479;-96
2022/05/01 03:27:10;;;;;;;26.27;18.77;;;9.70;99.90;;;;;;4832249;29;20443;-93
2022/05/01 03:29:39;;;;;;;25.43;19.50;;;9.70;99.90;;;;;;4859386;29;20487;-91
2022/05/01 03:32:07;;;;;;;25.83;19.17;;;9.80;99.90;;;;;;4847750;29;20755;-89
2022/05/01 03:34:34;;;;;;;26.40;18.70;;;9.70;99.90;;;;;;4870906;29;20447;-92
2022/05/01 03:37:08;;;;;;;31.73;21.67;;;9.80;99.90;;;;;;4866872;29;20470;-91
2022/05/01 03:39:36;;;;;;;29.07;21.03;;;9.80;99.90;;;;;;4856026;29;20553;-92
2022/05/01 03:42:21;;;;;;;29.13;21.47;;;9.70;99.90;;;;;;4855932;29;20460;-91
2022/05/01 03:44:46;;;;;;;29.03;20.67;;;9.80;99.90;;;;;;4843014;29;20506;-91
2022/05/01 03:47:12;;;;;;;31.40;22.20;;;9.70;99.90;;;;;;4853749;29;20526;-91
2022/05/01 03:49:38;;;;;;;33.97;22.17;;;9.70;99.90;;;;;;4859609;29;20281;-91
2022/05/01 03:52:04;;;;;;;28.00;20.07;;;9.70;99.90;;;;;;4862108;29;20486;-92
2022/05/01 03:54:29;;;;;;;31.43;21.53;;;9.70;99.90;;;;;;4861396;29;20186;-91
2022/05/01 03:56:55;;;;;;;28.03;20.30;;;9.70;99.90;;;;;;4863298;29;20454;-90
2022/05/01 03:59:20;;;;;;;29.30;20.70;;;9.70;99.90;;;;;;4847079;29;20831;-91
2022/05/01 04:04:39;;;;;;;29.00;19.77;;;9.60;99.90;;;;;;4841803;29;20830;-92
2022/05/01 04:07:05;;;;;;;28.97;19.60;;;9.70;99.90;;;;;;4856462;29;21051;-93
2022/05/01 04:09:31;;;;;;;29.37;19.90;;;9.70;99.90;;;;;;4849635;29;20466;-92
2022/05/01 04:11:56;;;;;;;27.20;20.23;;;9.80;99.90;;;;;;4853474;29;20208;-91
2022/05/01 04:14:22;;;;;;;28.90;20.50;;;9.80;99.90;;;;;;4849142;29;21525;-94
2022/05/01 04:17:09;;;;;;;27.17;20.60;;;9.70;99.90;;;;;;4834271;29;20194;-93
2022/05/01 04:19:42;;;;;;;29.00;21.90;;;9.70;99.90;;;;;;4837039;29;21857;-93
2022/05/01 04:22:08;;;;;;;27.07;20.90;;;9.70;99.90;;;;;;4836478;29;20829;-95
2022/05/01 04:24:34;;;;;;;27.63;21.63;;;9.70;99.90;;;;;;4835005;29;20491;-93
2022/05/01 04:27:06;;;;;;;28.57;21.97;;;9.60;99.90;;;;;;4852336;29;20626;-93
2022/05/01 04:29:49;;;;;;;27.97;19.67;;;9.60;99.90;;;;;;4837375;29;20615;-93
2022/05/01 04:32:16;;;;;;;29.50;20.57;;;9.60;99.90;;;;;;4836326;29;20496;-92
2022/05/01 04:34:42;;;;;;;28.67;21.30;;;9.60;99.90;;;;;;4851492;29;20459;-92
2022/05/01 04:37:07;;;;;;;25.63;20.10;;;9.60;99.90;;;;;;4862315;29;20523;-91
2022/05/01 04:39:33;;;;;;;28.97;21.90;;;9.60;99.90;;;;;;4853032;29;20270;-94
2022/05/01 04:41:58;;;;;;;26.87;20.23;;;9.60;99.90;;;;;;4853176;29;21160;-93
2022/05/01 04:44:24;;;;;;;28.87;22.40;;;9.60;99.90;;;;;;4844848;29;21479;-91
2022/05/01 04:46:50;;;;;;;25.43;20.27;;;9.50;99.90;;;;;;4859151;29;20218;-90
2022/05/01 04:49:20;;;;;;;29.37;21.40;;;9.60;99.90;;;;;;4833651;29;20433;-90
2022/05/01 04:51:47;;;;;;;27.80;20.70;;;9.50;99.90;;;;;;4854049;29;20448;-93
2022/05/01 04:54:15;;;;;;;27.70;21.13;;;9.60;99.90;;;;;;4842493;29;20463;-93
2022/05/01 04:59:26;;;;;;;29.30;21.90;;;9.60;99.90;;;;;;4840497;29;20458;-94
2022/05/01 05:01:51;;;;;;;30.30;22.00;;;9.50;99.90;;;;;;4836180;29;20459;-93
2022/05/01 05:04:17;;;;;;;30.50;24.10;;;9.50;99.90;;;;;;4840435;29;20568;-93
2022/05/01 05:06:45;;;;;;;35.17;24.30;;;9.50;99.90;;;;;;4843562;29;20191;-94
2022/05/01 05:11:56;;;;;;;32.90;23.47;;;9.50;99.90;;;;;;4846295;29;20810;-96
2022/05/01 05:14:23;;;;;;;34.03;24.80;;;9.70;99.90;;;;;;4855745;29;20546;-93
2022/05/01 05:16:48;;;;;;;35.37;23.90;;;9.80;99.90;;;;;;4858481;29;20450;-92
2022/05/01 05:19:14;;;;;;;37.97;24.83;;;9.90;99.90;;;;;;4834377;29;20485;-93
2022/05/01 05:21:39;;;;;;;38.97;27.17;;;9.80;99.90;;;;;;4853523;29;20191;-95
2022/05/01 05:24:05;;;;;;;43.13;25.63;;;9.70;99.90;;;;;;4863354;29;20206;-92
2022/05/01 05:26:30;;;;;;;40.70;27.33;;;9.50;99.90;;;;;;4856379;29;20346;-94
2022/05/01 05:28:56;;;;;;;37.17;25.80;;;9.40;99.90;;;;;;4836112;29;20321;-92
2022/05/01 05:31:21;;;;;;;41.40;28.27;;;9.50;99.90;;;;;;4855881;29;20190;-94
2022/05/01 05:33:47;;;;;;;46.23;29.37;;;9.50;99.90;;;;;;4853236;29;20190;-92
2022/05/01 05:36:13;;;;;;;38.00;27.03;;;9.40;99.90;;;;;;4859636;29;20199;-92
2022/05/01 05:38:38;;;;;;;38.67;27.10;;;9.40;99.90;;;;;;4843075;29;20203;-93
2022/05/01 05:41:05;;;;;;;37.03;25.60;;;9.60;99.90;;;;;;4847677;29;21091;-95
2022/05/01 05:43:31;;;;;;;39.00;26.50;;;9.60;99.90;;;;;;4839074;29;20202;-94
2022/05/01 05:45:56;;;;;;;37.90;25.77;;;9.70;99.90;;;;;;4853769;29;20549;-92
2022/05/01 05:48:22;;;;;;;40.03;28.17;;;9.70;99.90;;;;;;4834347;29;20448;-92
2022/05/01 05:50:47;;;;;;;42.20;27.50;;;9.70;99.90;;;;;;4852673;29;20270;-93
2022/05/01 05:53:15;;;;;;;34.17;25.10;;;9.80;99.90;;;;;;4834323;29;20205;-90
2022/05/01 05:55:41;;;;;;;37.40;26.50;;;9.90;99.90;;;;;;4836380;29;20191;-92
2022/05/01 05:58:06;;;;;;;37.23;25.20;;;10.00;99.90;;;;;;4853904;29;20458;-91
2022/05/01 06:00:34;;;;;;;36.30;27.20;;;9.90;99.90;;;;;;4852737;29;20523;-91
2022/05/01 06:03:06;;;;;;;38.60;26.63;;;10.00;99.90;;;;;;4833015;29;20187;-91
2022/05/01 06:06:05;;;;;;;35.03;25.63;;;10.00;99.90;;;;;;4831971;29;21037;-92
2022/05/01 06:08:30;;;;;;;34.13;23.93;;;10.00;99.90;;;;;;4856520;29;20846;-91
2022/05/01 06:10:56;;;;;;;34.40;25.27;;;10.10;99.90;;;;;;4841568;29;20454;-92
2022/05/01 06:13:41;;;;;;;36.33;25.20;;;10.10;99.90;;;;;;4850377;29;20190;-92
2022/05/01 06:16:07;;;;;;;36.27;25.33;;;10.10;99.90;;;;;;4848638;29;20275;-94
2022/05/01 06:18:33;;;;;;;36.90;24.03;;;10.20;99.90;;;;;;4856545;29;20526;-89
2022/05/01 06:20:58;;;;;;;38.57;25.57;;;10.20;99.90;;;;;;4826345;29;20194;-88
2022/05/01 06:23:24;;;;;;;39.40;26.73;;;10.20;99.90;;;;;;4855096;29;20281;-89
2022/05/01 06:26:07;;;;;;;39.70;25.73;;;10.00;99.90;;;;;;4841219;29;20198;-88
2022/05/01 06:28:35;;;;;;;34.20;25.60;;;9.90;99.90;;;;;;4850953;29;20189;-89
2022/05/01 06:31:02;;;;;;;33.70;24.53;;;9.90;99.90;;;;;;4862724;29;20461;-90
2022/05/01 06:33:29;;;;;;;36.53;25.07;;;10.00;99.90;;;;;;4853312;29;20502;-89
2022/05/01 06:35:55;;;;;;;36.03;25.40;;;10.10;99.90;;;;;;4855302;29;20479;-89
2022/05/01 06:38:35;;;;;;;33.83;22.90;;;10.10;99.90;;;;;;4838987;29;20543;-89
2022/05/01 06:41:03;;;;;;;31.73;25.63;;;10.10;99.90;;;;;;4842431;29;20514;-93
2022/05/01 06:43:35;;;;;;;35.23;25.47;;;10.30;99.90;;;;;;4844010;29;20454;-89
2022/05/01 06:46:00;;;;;;;33.73;24.60;;;10.40;99.90;;;;;;4842746;29;20870;-90
2022/05/01 06:48:26;;;;;;;34.60;23.20;;;10.50;99.90;;;;;;4858980;29;20458;-91
2022/05/01 06:50:51;;;;;;;31.13;22.27;;;10.60;99.90;;;;;;4854002;29;20203;-88
2022/05/01 06:53:17;;;;;;;33.97;22.97;;;10.60;99.90;;;;;;4853424;29;20193;-89
2022/05/01 06:55:46;;;;;;;29.33;23.53;;;10.80;99.90;;;;;;4853108;29;20476;-91
2022/05/01 06:58:11;;;;;;;32.13;22.47;;;10.80;99.90;;;;;;4863175;29;20190;-91
2022/05/01 07:00:37;;;;;;;31.30;22.90;;;10.90;99.90;;;;;;4842612;29;20451;-91
2022/05/01 07:03:05;;;;;;;31.23;23.20;;;10.80;99.90;;;;;;4851675;29;20233;-88
2022/05/01 07:05:30;;;;;;;34.27;24.77;;;10.80;99.90;;;;;;4834514;29;21392;-90
2022/05/01 07:07:56;;;;;;;31.67;24.10;;;10.80;99.90;;;;;;4832792;29;20450;-92
2022/05/01 07:10:23;;;;;;;34.03;25.23;;;10.80;99.90;;;;;;4835994;29;20187;-93
2022/05/01 07:12:48;;;;;;;31.10;22.70;;;10.70;99.90;;;;;;4853209;29;20277;-93
2022/05/01 07:15:24;;;;;;;32.00;23.77;;;10.70;99.90;;;;;;4863983;29;21687;-93
2022/05/01 07:17:50;;;;;;;29.13;22.07;;;10.80;99.90;;;;;;4862397;29;21242;-94
2022/05/01 07:20:15;;;;;;;29.00;22.47;;;10.90;99.90;;;;;;4853558;29;20553;-93
2022/05/01 07:22:41;;;;;;;33.93;22.83;;;11.00;99.90;;;;;;4832065;29;20194;-90
2022/05/01 07:25:08;;;;;;;30.20;21.90;;;10.80;99.90;;;;;;4837708;29;20877;-93
2022/05/01 07:27:33;;;;;;;30.80;22.07;;;10.80;99.90;;;;;;4842718;29;20191;-91
2022/05/01 07:29:59;;;;;;;28.60;21.93;;;10.80;99.90;;;;;;4843239;29;20602;-95
2022/05/01 07:32:25;;;;;;;30.97;22.97;;;10.80;99.90;;;;;;4857928;29;20866;-92
2022/05/01 07:34:51;;;;;;;29.90;22.03;;;10.90;99.90;;;;;;4854978;29;20209;-96
2022/05/01 07:37:18;;;;;;;31.20;22.80;;;10.90;99.90;;;;;;4862080;29;20455;-96
2022/05/01 07:39:43;;;;;;;34.77;23.73;;;11.00;99.90;;;;;;4837390;29;20190;-92
2022/05/01 07:42:11;;;;;;;32.00;23.40;;;10.70;99.90;;;;;;4842830;29;20470;-88
2022/05/01 07:44:36;;;;;;;30.37;23.50;;;10.50;99.90;;;;;;4822850;29;20498;-90
2022/05/01 07:47:02;;;;;;;29.90;21.57;;;10.60;99.90;;;;;;4836571;29;20446;-90
2022/05/01 07:49:27;;;;;;;26.97;21.23;;;10.60;99.90;;;;;;4830080;29;20197;-93
2022/05/01 07:51:53;;;;;;;40.87;34.10;;;10.70;99.90;;;;;;4833744;29;20734;-88
2022/05/01 07:54:18;;;;;;;282.77;244.90;;;11.00;99.90;;;;;;4839460;29;20300;-87
2022/05/01 07:56:44;;;;;;;30.23;23.90;;;11.20;99.90;;;;;;4844708;29;20265;-86
2022/05/01 07:59:11;;;;;;;28.83;21.80;;;11.30;99.90;;;;;;4846258;29;20198;-93
2022/05/01 08:01:38;;;;;;;34.87;22.60;;;11.40;99.90;;;;;;4858403;29;20182;-94
2022/05/01 08:06:48;;;;;;;28.10;21.23;;;11.10;99.90;;;;;;4838828;29;20450;-92
2022/05/01 08:09:14;;;;;;;30.50;22.77;;;10.60;99.90;;;;;;4835518;29;20454;-89
2022/05/01 08:11:39;;;;;;;28.23;21.53;;;10.50;99.90;;;;;;4843622;29;20186;-93
2022/05/01 08:14:05;;;;;;;29.70;21.33;;;10.70;99.90;;;;;;4862714;29;20711;-93
2022/05/01 08:16:31;;;;;;;28.60;21.10;;;11.00;99.90;;;;;;4860404;29;20194;-94
2022/05/01 08:21:40;;;;;;;30.67;20.53;;;11.20;99.90;;;;;;4848878;29;20196;-90
2022/05/01 08:24:06;;;;;;;27.33;20.93;;;11.30;99.90;;;;;;4849062;29;20475;-93
2022/05/01 08:26:33;;;;;;;24.20;19.37;;;11.90;99.90;;;;;;4859743;29;20197;-92
2022/05/01 08:28:59;;;;;;;27.70;21.37;;;11.90;99.90;;;;;;4841661;29;20205;-92
2022/05/01 08:31:25;;;;;;;26.23;19.70;;;11.80;99.90;;;;;;4854855;29;20498;-94
2022/05/01 08:33:50;;;;;;;21.73;17.73;;;12.00;99.90;;;;;;4868253;29;20528;-96
2022/05/01 08:36:16;;;;;;;21.43;16.67;;;12.10;99.90;;;;;;4864708;29;20191;-95
2022/05/01 08:38:42;;;;;;;20.50;16.20;;;12.10;99.90;;;;;;4869033;29;20197;-96
2022/05/01 08:41:09;;;;;;;23.70;18.97;;;12.50;99.90;;;;;;4854196;29;20501;-96
2022/05/01 08:43:36;;;;;;;21.60;16.47;;;12.90;99.90;;;;;;4867990;29;20462;-96
2022/05/01 08:46:27;;;;;;;20.33;15.80;;;13.00;99.90;;;;;;4869799;29;20531;-96
2022/05/01 08:49:02;;;;;;;21.53;17.90;;;13.40;99.90;;;;;;4852879;29;20450;-96
2022/05/01 08:51:42;;;;;;;23.40;18.93;;;13.50;99.90;;;;;;4871931;29;20443;-95
2022/05/01 08:54:13;;;;;;;20.20;15.70;;;13.40;99.90;;;;;;4875134;29;20469;-96
2022/05/01 09:04:26;;;;;;;19.83;16.67;;;13.80;99.90;;;;;;4881409;29;21004;-96
2022/05/01 09:06:52;;;;;;;21.23;15.90;;;13.80;99.90;;;;;;4892048;29;20959;-96
2022/05/01 09:09:24;;;;;;;22.80;17.40;;;14.00;99.90;;;;;;4894801;29;20497;-96
2022/05/01 09:14:41;;;;;;;21.13;18.00;;;14.50;99.90;;;;;;4881382;29;20452;-96
2022/05/01 09:17:17;;;;;;;20.07;17.80;;;14.10;99.90;;;;;;4891026;29;20442;-96
2022/05/01 09:19:44;;;;;;;23.10;18.97;;;13.70;99.90;;;;;;4878724;29;20552;-95
2022/05/01 09:22:11;;;;;;;26.70;20.07;;;13.40;99.90;;;;;;4877242;29;20495;-96
2022/05/01 09:24:36;;;;;;;19.80;17.47;;;13.40;99.90;;;;;;4879577;29;20481;-96
2022/05/01 09:27:05;;;;;;;22.67;18.20;;;13.60;99.90;;;;;;4887136;29;20449;-96
2022/05/01 09:29:35;;;;;;;21.07;16.93;;;13.60;99.90;;;;;;4881513;29;20193;-96
2022/05/01 09:32:05;;;;;;;20.93;16.97;;;13.60;99.90;;;;;;4889446;29;20480;-96
2022/05/01 09:34:36;;;;;;;19.60;16.50;;;13.70;99.90;;;;;;4892215;29;20465;-96
2022/05/01 09:37:18;;;;;;;18.70;16.33;;;13.90;99.90;;;;;;4897681;29;20774;-96
2022/05/01 09:39:49;;;;;;;19.87;15.77;;;14.20;99.90;;;;;;4887189;29;20482;-96
2022/05/01 09:42:18;;;;;;;20.93;18.07;;;14.10;99.90;;;;;;5086722;23;20447;-96
2022/05/01 09:45:01;;;;;;;18.80;16.67;;;14.10;99.90;;;;;;4885848;29;21001;-96
2022/05/01 09:47:47;;;;;;;21.93;16.57;;;14.10;99.90;;;;;;4903225;29;20442;-96
2022/05/01 09:50:15;;;;;;;20.60;16.57;;;14.10;99.90;;;;;;4884331;29;20438;-95
2022/05/01 09:52:59;;;;;;;20.83;16.93;;;14.30;99.90;;;;;;4870745;29;20473;-96
2022/05/01 09:55:26;;;;;;;19.83;17.00;;;14.50;99.90;;;;;;4876382;29;20442;-95
2022/05/01 09:58:12;;;;;;;20.30;17.00;;;14.10;99.90;;;;;;4876099;29;20446;-95
2022/05/01 10:00:47;;;;;;;20.73;16.93;;;13.80;99.90;;;;;;4911981;29;20601;-95
2022/05/01 10:03:19;;;;;;;20.90;18.13;;;14.40;99.90;;;;;;4872967;29;20502;-95
2022/05/01 10:05:46;;;;;;;21.03;17.37;;;14.80;99.90;;;;;;4907809;29;20482;-95
2022/05/01 10:08:13;;;;;;;21.27;18.13;;;14.40;99.90;;;;;;4886660;29;20490;-96
2022/05/01 10:10:41;;;;;;;21.07;17.33;;;14.80;99.90;;;;;;4875324;29;20603;-96
2022/05/01 10:13:07;;;;;;;18.67;16.20;;;15.10;99.90;;;;;;4868531;29;20446;-95
2022/05/01 10:15:34;;;;;;;19.27;17.20;;;15.50;99.50;;;;;;4882860;29;20449;-95
2022/05/01 10:18:02;;;;;;;20.57;16.13;;;15.70;99.80;;;;;;4853899;29;20518;-96
2022/05/01 10:20:28;;;;;;;20.43;14.10;;;16.20;99.20;;;;;;4869862;29;20505;-95
2022/05/01 10:22:55;;;;;;;16.40;14.70;;;16.40;97.80;;;;;;4869258;29;20439;-96
2022/05/01 10:25:21;;;;;;;16.70;14.60;;;16.40;96.60;;;;;;4888939;29;20478;-96
2022/05/01 10:28:05;;;;;;;18.63;16.10;;;16.90;96.40;;;;;;4864803;29;20194;-96
2022/05/01 10:33:47;;;;;;;15.93;14.27;;;17.10;98.50;;;;;;4871308;29;21190;-96
2022/05/01 10:36:41;;;;;;;16.70;15.00;;;17.00;94.90;;;;;;4902599;29;20568;-95
2022/05/01 10:39:09;;;;;;;15.83;14.13;;;16.70;94.90;;;;;;4901064;29;20556;-96
2022/05/01 10:41:44;;;;;;;16.37;14.67;;;16.60;96.10;;;;;;4870764;29;20546;-94
2022/05/01 10:44:35;;;;;;;14.03;12.63;;;16.50;96.60;;;;;;4869855;29;20476;-93
2022/05/01 10:47:12;;;;;;;15.63;13.77;;;16.30;95.30;;;;;;4865501;29;20506;-89
2022/05/01 10:49:41;;;;;;;16.63;12.77;;;16.50;95.80;;;;;;4876573;29;20645;-93
2022/05/01 10:52:20;;;;;;;14.47;12.57;;;16.40;94.30;;;;;;4861329;29;21203;-90
2022/05/01 10:55:04;;;;;;;15.03;12.67;;;16.00;94.40;;;;;;4869209;29;21842;-89
2022/05/01 10:57:30;;;;;;;13.30;12.00;;;16.10;95.20;;;;;;4849153;29;20477;-91
2022/05/01 11:00:11;;;;;;;14.97;12.67;;;16.00;94.20;;;;;;4855037;29;20462;-91
2022/05/01 11:02:46;;;;;;;14.70;11.73;;;16.40;94.40;;;;;;4850467;29;20735;-89
2022/05/01 11:05:42;;;;;;;13.93;11.90;;;16.80;93.90;;;;;;4864976;29;20488;-89
2022/05/01 11:08:28;;;;;;;14.00;11.70;;;17.30;93.00;;;;;;4858445;29;20449;-89
2022/05/01 11:10:58;;;;;;;13.47;12.00;;;17.20;92.90;;;;;;4853183;29;20576;-89
2022/05/01 11:13:47;;;;;;;12.30;11.10;;;17.40;92.40;;;;;;4864372;29;21167;-92
2022/05/01 11:16:13;;;;;;;12.50;11.20;;;17.20;91.20;;;;;;4847357;29;20450;-91
2022/05/01 11:18:41;;;;;;;13.57;12.20;;;17.50;92.00;;;;;;4918779;23;20586;-93
2022/05/01 11:21:19;;;;;;;13.30;12.00;;;17.10;92.00;;;;;;4852038;29;20217;-95
2022/05/01 11:23:46;;;;;;;11.73;9.67;;;16.80;92.10;;;;;;4847039;29;20471;-91
2022/05/01 11:26:17;;;;;;;12.57;11.27;;;16.50;92.10;;;;;;4849210;29;20602;-93
2022/05/01 11:28:48;;;;;;;12.80;11.50;;;16.60;92.40;;;;;;4856312;29;20553;-86
2022/05/01 11:31:36;;;;;;;13.30;12.00;;;16.30;93.10;;;;;;4869936;29;20451;-90
2022/05/01 11:34:36;;;;;;;12.60;11.30;;;16.40;94.00;;;;;;4854798;29;20453;-91
2022/05/01 11:37:01;;;;;;;15.97;11.40;;;17.40;93.00;;;;;;4834915;29;20450;-92
2022/05/01 11:39:46;;;;;;;15.13;13.07;;;17.40;92.40;;;;;;4859148;29;20442;-94
2022/05/01 11:42:25;;;;;;;14.33;12.90;;;17.30;94.70;;;;;;4846127;29;20288;-91
2022/05/01 11:44:56;;;;;;;14.00;12.70;;;17.60;93.70;;;;;;4873687;29;20626;-95
2022/05/01 11:47:43;;;;;;;14.03;12.53;;;17.30;93.30;;;;;;4872671;29;20448;-96
2022/05/01 11:51:01;;;;;;;;;;;;;;;;;;;;;
2022/05/01 11:54:02;;;;;;;13.07;11.70;;;17.60;95.00;;;;;;4789597;29;20446;-93
2022/05/01 12:02:24;;;;;;;13.80;12.50;;;16.90;93.10;;;;;;4878850;29;20481;-94
2022/05/01 12:04:50;;;;;;;15.17;13.10;;;16.40;93.50;;;;;;4851773;29;20514;-95
2022/05/01 12:07:20;;;;;;;13.43;12.17;;;16.50;94.40;;;;;;4876763;29;20445;-96
2022/05/01 12:09:47;;;;;;;13.57;12.07;;;17.00;93.10;;;;;;4886141;29;20461;-94
2022/05/01 12:12:19;;;;;;;14.20;12.80;;;16.90;93.40;;;;;;4874007;29;20505;-96
2022/05/01 12:14:45;;;;;;;12.80;11.50;;;16.40;93.00;;;;;;4895387;29;20454;-94
2022/05/01 12:17:18;;;;;;;14.50;13.00;;;16.30;93.70;;;;;;4877582;29;20512;-94
2022/05/01 12:20:06;;;;;;;12.47;11.20;;;16.10;93.90;;;;;;4874464;29;20450;-94
2022/05/01 12:22:43;;;;;;;14.73;11.53;;;16.20;93.80;;;;;;4877863;29;20442;-95
2022/05/01 12:25:14;;;;;;;14.67;13.20;;;16.50;94.60;;;;;;4879284;29;20513;-94
2022/05/01 12:27:40;;;;;;;13.20;11.90;;;17.10;93.50;;;;;;4897015;29;20446;-94
2022/05/01 12:30:13;;;;;;;13.13;11.83;;;16.90;93.80;;;;;;4895167;29;20900;-95
2022/05/01 12:32:52;;;;;;;16.83;15.33;;;16.90;94.10;;;;;;4878314;29;20479;-94
2022/05/01 12:35:49;;;;;;;12.23;10.53;;;17.30;93.70;;;;;;4895414;29;20454;-95
2022/05/01 12:38:17;;;;;;;12.67;11.37;;;18.00;95.10;;;;;;4890921;29;20449;-94
2022/05/01 12:46:23;;;;;;;12.60;11.30;;;17.80;92.60;;;;;;4873792;29;20473;-95
2022/05/01 12:48:48;;;;;;;12.70;11.40;;;18.20;90.00;;;;;;4873152;29;20856;-94
2022/05/01 12:51:14;;;;;;;12.33;11.10;;;18.50;90.00;;;;;;4879699;29;20458;-94
2022/05/01 12:53:40;;;;;;;14.80;13.23;;;18.70;91.50;;;;;;4894254;29;20454;-92
2022/05/01 12:56:22;;;;;;;12.40;11.20;;;18.20;89.10;;;;;;4879109;29;20214;-94
2022/05/01 12:58:49;;;;;;;11.10;9.70;;;17.90;92.20;;;;;;4896487;29;20186;-95
2022/05/01 13:01:27;;;;;;;10.83;9.83;;;19.00;92.50;;;;;;4883133;29;20446;-94
2022/05/01 13:03:54;;;;;;;12.20;11.10;;;19.60;87.60;;;;;;4885733;29;21044;-93
2022/05/01 13:06:21;;;;;;;12.80;11.50;;;19.70;88.30;;;;;;4899997;29;20801;-94
2022/05/01 13:09:05;;;;;;;11.37;10.30;;;18.30;88.90;;;;;;4881020;29;20435;-95
2022/05/01 13:11:33;;;;;;;12.40;11.20;;;18.40;89.20;;;;;;4891587;29;20499;-95
2022/05/01 13:14:09;;;;;;;12.53;11.00;;;18.60;88.90;;;;;;4895578;29;20437;-94
2022/05/01 13:16:35;;;;;;;10.87;9.77;;;18.70;90.40;;;;;;4893733;29;20483;-95
2022/05/01 13:19:11;;;;;;;12.17;11.00;;;18.70;90.10;;;;;;4903918;29;20519;-93
2022/05/01 13:21:40;;;;;;;11.90;10.80;;;18.40;90.30;;;;;;4878323;29;20664;-95
2022/05/01 13:24:29;;;;;;;14.53;11.63;;;18.20;87.60;;;;;;4898216;29;20478;-95
2022/05/01 13:27:00;;;;;;;12.10;10.90;;;18.30;90.10;;;;;;4884109;29;20445;-95
2022/05/01 13:29:46;;;;;;;11.57;10.47;;;18.50;88.40;;;;;;4881553;29;20519;-96
2022/05/01 13:32:23;;;;;;;11.20;10.10;;;18.30;87.30;;;;;;4880119;29;20438;-94
2022/05/01 13:34:49;;;;;;;11.63;10.43;;;18.50;88.70;;;;;;4901440;29;20452;-95
2022/05/01 13:37:14;;;;;;;12.30;11.00;;;19.10;87.20;;;;;;4899154;29;20435;-94
2022/05/01 13:45:19;;;;;;;14.10;12.60;;;19.00;90.60;;;;;;4885184;29;20523;-94